sensor_id;sensor_type;location;lat;lon;timestamp;P1;durP1;ratioP1;P2;durP2;ratioP2
55915;SDS011;41826;53.246;-6.670;2023-04-06T00:01:07;9.38;;;2.60;;
55915;SDS011;41826;53.246;-6.670;2023-04-06T00:03:33;5.50;;;1.85;;
55915;SDS011;41826;53.246;-6.670;2023-04-06T00:05:59;4.53;;;2.28;;
55915;SDS011;41826;53.246;-6.670;2023-04-06T00:08:25;2.78;;;1.63;;
55915;SDS011;41826;53.246;-6.670;2023-04-06T00:10:51;2.35;;;1.77;;
55915;SDS011;41826;53.246;-6.670;2023-04-06T00:13:16;4.82;;;1.95;;
55915;SDS011;41826;53.246;-6.670;2023-04-06T00:15:42;3.42;;;1.80;;
55915;SDS011;41826;53.246;-6.670;2023-04-06T00:18:07;7.65;;;2.60;;
55915;SDS011;41826;53.246;-6.670;2023-04-06T00:20:32;6.25;;;2.10;;
55915;SDS011;41826;53.246;-6.670;2023-04-06T00:22:58;5.93;;;2.40;;
55915;SDS011;41826;53.246;-6.670;2023-04-06T00:25:23;5.43;;;2.05;;
55915;SDS011;41826;53.246;-6.670;2023-04-06T00:27:49;2.92;;;1.80;;
55915;SDS011;41826;53.246;-6.670;2023-04-06T00:30:14;2.95;;;2.15;;
55915;SDS011;41826;53.246;-6.670;2023-04-06T00:32:39;3.20;;;2.05;;
55915;SDS011;41826;53.246;-6.670;2023-04-06T00:35:05;5.55;;;2.15;;
55915;SDS011;41826;53.246;-6.670;2023-04-06T00:37:31;3.10;;;2.10;;
55915;SDS011;41826;53.246;-6.670;2023-04-06T00:39:57;3.08;;;1.88;;
55915;SDS011;41826;53.246;-6.670;2023-04-06T00:42:23;3.85;;;1.98;;
55915;SDS011;41826;53.246;-6.670;2023-04-06T00:45:00;2.53;;;1.88;;
55915;SDS011;41826;53.246;-6.670;2023-04-06T00:47:26;4.40;;;1.98;;
55915;SDS011;41826;53.246;-6.670;2023-04-06T00:49:52;1.90;;;1.70;;
55915;SDS011;41826;53.246;-6.670;2023-04-06T00:52:19;3.38;;;1.73;;
55915;SDS011;41826;53.246;-6.670;2023-04-06T00:54:44;3.28;;;1.80;;
55915;SDS011;41826;53.246;-6.670;2023-04-06T00:57:11;5.60;;;2.40;;
55915;SDS011;41826;53.246;-6.670;2023-04-06T00:59:37;4.82;;;2.05;;
55915;SDS011;41826;53.246;-6.670;2023-04-06T01:02:02;3.47;;;2.60;;
55915;SDS011;41826;53.246;-6.670;2023-04-06T01:04:28;4.55;;;2.28;;
55915;SDS011;41826;53.246;-6.670;2023-04-06T01:06:53;4.03;;;2.35;;
55915;SDS011;41826;53.246;-6.670;2023-04-06T01:09:19;2.50;;;1.92;;
55915;SDS011;41826;53.246;-6.670;2023-04-06T01:11:44;3.53;;;2.13;;
55915;SDS011;41826;53.246;-6.670;2023-04-06T01:14:10;4.15;;;1.85;;
55915;SDS011;41826;53.246;-6.670;2023-04-06T01:16:35;5.22;;;2.05;;
55915;SDS011;41826;53.246;-6.670;2023-04-06T01:19:04;4.65;;;2.20;;
55915;SDS011;41826;53.246;-6.670;2023-04-06T01:21:35;2.97;;;2.47;;
55915;SDS011;41826;53.246;-6.670;2023-04-06T01:24:01;4.32;;;1.90;;
55915;SDS011;41826;53.246;-6.670;2023-04-06T01:26:26;6.22;;;2.00;;
55915;SDS011;41826;53.246;-6.670;2023-04-06T01:28:52;4.05;;;2.33;;
55915;SDS011;41826;53.246;-6.670;2023-04-06T01:31:17;4.78;;;2.15;;
55915;SDS011;41826;53.246;-6.670;2023-04-06T01:33:42;8.00;;;2.50;;
55915;SDS011;41826;53.246;-6.670;2023-04-06T01:36:08;3.53;;;2.13;;
55915;SDS011;41826;53.246;-6.670;2023-04-06T01:38:33;3.45;;;1.90;;
55915;SDS011;41826;53.246;-6.670;2023-04-06T01:40:59;4.38;;;2.40;;
55915;SDS011;41826;53.246;-6.670;2023-04-06T01:43:25;3.70;;;2.20;;
55915;SDS011;41826;53.246;-6.670;2023-04-06T01:45:50;3.20;;;1.75;;
55915;SDS011;41826;53.246;-6.670;2023-04-06T01:48:16;3.05;;;2.15;;
55915;SDS011;41826;53.246;-6.670;2023-04-06T01:50:41;4.10;;;2.15;;
55915;SDS011;41826;53.246;-6.670;2023-04-06T01:53:07;4.00;;;1.83;;
55915;SDS011;41826;53.246;-6.670;2023-04-06T01:55:32;5.38;;;2.20;;
55915;SDS011;41826;53.246;-6.670;2023-04-06T01:57:58;5.28;;;2.38;;
55915;SDS011;41826;53.246;-6.670;2023-04-06T02:00:23;3.47;;;1.83;;
55915;SDS011;41826;53.246;-6.670;2023-04-06T02:02:48;3.28;;;1.92;;
55915;SDS011;41826;53.246;-6.670;2023-04-06T02:05:14;6.53;;;2.65;;
55915;SDS011;41826;53.246;-6.670;2023-04-06T02:07:40;5.32;;;2.08;;
55915;SDS011;41826;53.246;-6.670;2023-04-06T02:10:10;7.93;;;2.22;;
55915;SDS011;41826;53.246;-6.670;2023-04-06T02:12:37;6.97;;;2.80;;
55915;SDS011;41826;53.246;-6.670;2023-04-06T02:15:02;9.80;;;2.42;;
55915;SDS011;41826;53.246;-6.670;2023-04-06T02:17:28;9.25;;;2.63;;
55915;SDS011;41826;53.246;-6.670;2023-04-06T02:19:53;3.90;;;1.85;;
55915;SDS011;41826;53.246;-6.670;2023-04-06T02:22:19;11.65;;;2.20;;
55915;SDS011;41826;53.246;-6.670;2023-04-06T02:24:44;3.38;;;1.90;;
55915;SDS011;41826;53.246;-6.670;2023-04-06T02:27:10;7.50;;;2.20;;
55915;SDS011;41826;53.246;-6.670;2023-04-06T02:29:35;5.20;;;1.95;;
55915;SDS011;41826;53.246;-6.670;2023-04-06T02:32:01;2.67;;;1.63;;
55915;SDS011;41826;53.246;-6.670;2023-04-06T02:34:26;2.35;;;1.67;;
55915;SDS011;41826;53.246;-6.670;2023-04-06T02:36:51;7.57;;;2.58;;
55915;SDS011;41826;53.246;-6.670;2023-04-06T02:39:17;2.58;;;1.70;;
55915;SDS011;41826;53.246;-6.670;2023-04-06T02:41:42;7.43;;;1.90;;
55915;SDS011;41826;53.246;-6.670;2023-04-06T02:44:08;3.88;;;2.20;;
55915;SDS011;41826;53.246;-6.670;2023-04-06T02:46:34;4.97;;;1.60;;
55915;SDS011;41826;53.246;-6.670;2023-04-06T02:49:00;4.43;;;1.83;;
55915;SDS011;41826;53.246;-6.670;2023-04-06T02:51:25;2.17;;;1.60;;
55915;SDS011;41826;53.246;-6.670;2023-04-06T02:53:51;5.78;;;1.80;;
55915;SDS011;41826;53.246;-6.670;2023-04-06T02:56:17;10.05;;;2.67;;
55915;SDS011;41826;53.246;-6.670;2023-04-06T02:58:42;7.45;;;2.33;;
55915;SDS011;41826;53.246;-6.670;2023-04-06T03:01:08;8.18;;;2.22;;
55915;SDS011;41826;53.246;-6.670;2023-04-06T03:03:33;4.30;;;2.00;;
55915;SDS011;41826;53.246;-6.670;2023-04-06T03:05:58;2.50;;;1.50;;
55915;SDS011;41826;53.246;-6.670;2023-04-06T03:08:25;1.92;;;1.63;;
55915;SDS011;41826;53.246;-6.670;2023-04-06T03:10:50;7.20;;;1.90;;
55915;SDS011;41826;53.246;-6.670;2023-04-06T03:13:16;4.70;;;2.10;;
55915;SDS011;41826;53.246;-6.670;2023-04-06T03:15:41;7.88;;;1.70;;
55915;SDS011;41826;53.246;-6.670;2023-04-06T03:18:06;10.35;;;2.45;;
55915;SDS011;41826;53.246;-6.670;2023-04-06T03:20:32;8.05;;;2.05;;
55915;SDS011;41826;53.246;-6.670;2023-04-06T03:22:57;4.78;;;1.70;;
55915;SDS011;41826;53.246;-6.670;2023-04-06T03:25:23;6.70;;;1.40;;
55915;SDS011;41826;53.246;-6.670;2023-04-06T03:27:49;12.70;;;2.17;;
55915;SDS011;41826;53.246;-6.670;2023-04-06T03:30:14;11.70;;;1.90;;
55915;SDS011;41826;53.246;-6.670;2023-04-06T03:32:41;8.02;;;1.65;;
55915;SDS011;41826;53.246;-6.670;2023-04-06T03:35:07;4.20;;;1.50;;
55915;SDS011;41826;53.246;-6.670;2023-04-06T03:37:33;2.95;;;1.50;;
55915;SDS011;41826;53.246;-6.670;2023-04-06T03:39:58;5.28;;;2.72;;
55915;SDS011;41826;53.246;-6.670;2023-04-06T03:42:23;5.90;;;1.38;;
55915;SDS011;41826;53.246;-6.670;2023-04-06T03:44:48;3.38;;;1.40;;
55915;SDS011;41826;53.246;-6.670;2023-04-06T03:47:14;4.03;;;1.50;;
55915;SDS011;41826;53.246;-6.670;2023-04-06T03:49:40;2.92;;;1.38;;
55915;SDS011;41826;53.246;-6.670;2023-04-06T03:52:05;4.03;;;1.33;;
55915;SDS011;41826;53.246;-6.670;2023-04-06T03:54:30;2.60;;;1.30;;
55915;SDS011;41826;53.246;-6.670;2023-04-06T03:56:56;8.25;;;1.85;;
55915;SDS011;41826;53.246;-6.670;2023-04-06T03:59:21;9.52;;;1.98;;
55915;SDS011;41826;53.246;-6.670;2023-04-06T04:01:46;8.02;;;1.52;;
55915;SDS011;41826;53.246;-6.670;2023-04-06T04:04:12;4.05;;;1.40;;
55915;SDS011;41826;53.246;-6.670;2023-04-06T04:06:37;2.72;;;1.40;;
55915;SDS011;41826;53.246;-6.670;2023-04-06T04:09:03;6.47;;;1.50;;
55915;SDS011;41826;53.246;-6.670;2023-04-06T04:11:28;12.70;;;1.70;;
55915;SDS011;41826;53.246;-6.670;2023-04-06T04:13:53;8.85;;;1.98;;
55915;SDS011;41826;53.246;-6.670;2023-04-06T04:16:19;5.90;;;1.45;;
55915;SDS011;41826;53.246;-6.670;2023-04-06T04:18:44;10.35;;;1.73;;
55915;SDS011;41826;53.246;-6.670;2023-04-06T04:21:12;9.25;;;1.92;;
55915;SDS011;41826;53.246;-6.670;2023-04-06T04:23:37;5.78;;;1.45;;
55915;SDS011;41826;53.246;-6.670;2023-04-06T04:26:03;12.75;;;2.17;;
55915;SDS011;41826;53.246;-6.670;2023-04-06T04:28:28;5.07;;;1.73;;
55915;SDS011;41826;53.246;-6.670;2023-04-06T04:30:54;10.85;;;1.63;;
55915;SDS011;41826;53.246;-6.670;2023-04-06T04:33:19;10.13;;;1.90;;
55915;SDS011;41826;53.246;-6.670;2023-04-06T04:35:44;10.02;;;1.92;;
55915;SDS011;41826;53.246;-6.670;2023-04-06T04:38:10;7.78;;;1.83;;
55915;SDS011;41826;53.246;-6.670;2023-04-06T04:40:35;6.95;;;1.70;;
55915;SDS011;41826;53.246;-6.670;2023-04-06T04:43:00;11.73;;;1.50;;
55915;SDS011;41826;53.246;-6.670;2023-04-06T04:45:26;9.25;;;1.60;;
55915;SDS011;41826;53.246;-6.670;2023-04-06T04:47:51;4.03;;;1.63;;
55915;SDS011;41826;53.246;-6.670;2023-04-06T04:50:17;6.30;;;1.60;;
55915;SDS011;41826;53.246;-6.670;2023-04-06T04:52:42;5.38;;;1.20;;
55915;SDS011;41826;53.246;-6.670;2023-04-06T04:55:07;3.10;;;1.60;;
55915;SDS011;41826;53.246;-6.670;2023-04-06T04:57:33;2.60;;;1.40;;
55915;SDS011;41826;53.246;-6.670;2023-04-06T04:59:58;2.30;;;1.30;;
55915;SDS011;41826;53.246;-6.670;2023-04-06T05:02:23;2.40;;;1.20;;
55915;SDS011;41826;53.246;-6.670;2023-04-06T05:04:49;2.33;;;0.80;;
55915;SDS011;41826;53.246;-6.670;2023-04-06T05:07:14;3.50;;;1.30;;
55915;SDS011;41826;53.246;-6.670;2023-04-06T05:09:40;2.17;;;1.30;;
55915;SDS011;41826;53.246;-6.670;2023-04-06T05:12:06;3.15;;;1.17;;
55915;SDS011;41826;53.246;-6.670;2023-04-06T05:14:31;4.85;;;1.70;;
55915;SDS011;41826;53.246;-6.670;2023-04-06T05:16:57;3.25;;;1.42;;
55915;SDS011;41826;53.246;-6.670;2023-04-06T05:19:23;2.55;;;1.02;;
55915;SDS011;41826;53.246;-6.670;2023-04-06T05:21:48;5.90;;;1.50;;
55915;SDS011;41826;53.246;-6.670;2023-04-06T05:24:14;3.65;;;1.52;;
55915;SDS011;41826;53.246;-6.670;2023-04-06T05:26:39;3.15;;;1.23;;
55915;SDS011;41826;53.246;-6.670;2023-04-06T05:29:05;2.47;;;1.58;;
55915;SDS011;41826;53.246;-6.670;2023-04-06T05:31:30;5.60;;;1.45;;
55915;SDS011;41826;53.246;-6.670;2023-04-06T05:33:56;2.88;;;1.52;;
55915;SDS011;41826;53.246;-6.670;2023-04-06T05:36:21;4.80;;;1.40;;
55915;SDS011;41826;53.246;-6.670;2023-04-06T05:38:47;9.63;;;1.92;;
55915;SDS011;41826;53.246;-6.670;2023-04-06T05:41:12;7.80;;;1.98;;
55915;SDS011;41826;53.246;-6.670;2023-04-06T05:43:38;3.22;;;1.00;;
55915;SDS011;41826;53.246;-6.670;2023-04-06T05:46:03;1.85;;;1.20;;
55915;SDS011;41826;53.246;-6.670;2023-04-06T05:48:29;1.27;;;1.17;;
55915;SDS011;41826;53.246;-6.670;2023-04-06T05:50:54;1.80;;;1.23;;
55915;SDS011;41826;53.246;-6.670;2023-04-06T05:53:20;3.45;;;1.13;;
55915;SDS011;41826;53.246;-6.670;2023-04-06T05:55:46;3.08;;;1.27;;
55915;SDS011;41826;53.246;-6.670;2023-04-06T05:58:11;1.30;;;1.20;;
55915;SDS011;41826;53.246;-6.670;2023-04-06T06:00:37;3.85;;;1.20;;
55915;SDS011;41826;53.246;-6.670;2023-04-06T06:03:02;2.92;;;1.23;;
55915;SDS011;41826;53.246;-6.670;2023-04-06T06:05:31;3.90;;;1.27;;
55915;SDS011;41826;53.246;-6.670;2023-04-06T06:07:56;3.78;;;1.20;;
55915;SDS011;41826;53.246;-6.670;2023-04-06T06:10:22;3.92;;;1.08;;
55915;SDS011;41826;53.246;-6.670;2023-04-06T06:12:48;1.67;;;0.90;;
55915;SDS011;41826;53.246;-6.670;2023-04-06T06:15:13;4.82;;;1.55;;
55915;SDS011;41826;53.246;-6.670;2023-04-06T06:17:38;3.03;;;1.10;;
55915;SDS011;41826;53.246;-6.670;2023-04-06T06:20:07;2.63;;;1.08;;
55915;SDS011;41826;53.246;-6.670;2023-04-06T06:22:33;1.77;;;1.08;;
55915;SDS011;41826;53.246;-6.670;2023-04-06T06:24:58;2.33;;;1.00;;
55915;SDS011;41826;53.246;-6.670;2023-04-06T06:27:23;2.35;;;0.80;;
55915;SDS011;41826;53.246;-6.670;2023-04-06T06:29:49;7.20;;;1.30;;
55915;SDS011;41826;53.246;-6.670;2023-04-06T06:32:14;2.38;;;1.17;;
55915;SDS011;41826;53.246;-6.670;2023-04-06T06:34:40;3.25;;;1.05;;
55915;SDS011;41826;53.246;-6.670;2023-04-06T06:37:05;3.72;;;1.17;;
55915;SDS011;41826;53.246;-6.670;2023-04-06T06:39:32;3.33;;;1.02;;
55915;SDS011;41826;53.246;-6.670;2023-04-06T06:41:57;2.15;;;0.90;;
55915;SDS011;41826;53.246;-6.670;2023-04-06T06:44:25;3.92;;;1.05;;
55915;SDS011;41826;53.246;-6.670;2023-04-06T06:46:51;1.63;;;0.80;;
55915;SDS011;41826;53.246;-6.670;2023-04-06T06:49:16;2.30;;;1.35;;
55915;SDS011;41826;53.246;-6.670;2023-04-06T06:51:42;3.40;;;1.45;;
55915;SDS011;41826;53.246;-6.670;2023-04-06T06:54:07;1.33;;;0.90;;
55915;SDS011;41826;53.246;-6.670;2023-04-06T06:56:32;2.03;;;0.80;;
55915;SDS011;41826;53.246;-6.670;2023-04-06T06:58:58;3.85;;;1.33;;
55915;SDS011;41826;53.246;-6.670;2023-04-06T07:01:23;4.15;;;0.95;;
55915;SDS011;41826;53.246;-6.670;2023-04-06T07:03:48;3.38;;;0.85;;
55915;SDS011;41826;53.246;-6.670;2023-04-06T07:06:14;1.67;;;1.00;;
55915;SDS011;41826;53.246;-6.670;2023-04-06T07:08:40;3.15;;;0.95;;
55915;SDS011;41826;53.246;-6.670;2023-04-06T07:11:05;0.98;;;0.70;;
55915;SDS011;41826;53.246;-6.670;2023-04-06T07:13:30;1.77;;;0.98;;
55915;SDS011;41826;53.246;-6.670;2023-04-06T07:15:56;1.42;;;0.80;;
55915;SDS011;41826;53.246;-6.670;2023-04-06T07:18:21;2.08;;;1.08;;
55915;SDS011;41826;53.246;-6.670;2023-04-06T07:20:47;2.92;;;1.10;;
55915;SDS011;41826;53.246;-6.670;2023-04-06T07:23:12;2.58;;;1.20;;
55915;SDS011;41826;53.246;-6.670;2023-04-06T07:25:38;1.30;;;0.93;;
55915;SDS011;41826;53.246;-6.670;2023-04-06T07:28:03;3.05;;;1.48;;
55915;SDS011;41826;53.246;-6.670;2023-04-06T07:30:29;2.60;;;1.15;;
55915;SDS011;41826;53.246;-6.670;2023-04-06T07:32:55;2.67;;;1.10;;
55915;SDS011;41826;53.246;-6.670;2023-04-06T07:35:21;1.90;;;1.17;;
55915;SDS011;41826;53.246;-6.670;2023-04-06T07:37:51;2.00;;;1.48;;
55915;SDS011;41826;53.246;-6.670;2023-04-06T07:40:16;3.28;;;1.08;;
55915;SDS011;41826;53.246;-6.670;2023-04-06T07:42:41;6.45;;;1.88;;
55915;SDS011;41826;53.246;-6.670;2023-04-06T07:45:07;3.55;;;1.30;;
55915;SDS011;41826;53.246;-6.670;2023-04-06T07:47:33;2.50;;;1.42;;
55915;SDS011;41826;53.246;-6.670;2023-04-06T07:49:58;2.60;;;1.08;;
55915;SDS011;41826;53.246;-6.670;2023-04-06T07:52:24;1.23;;;0.93;;
55915;SDS011;41826;53.246;-6.670;2023-04-06T07:54:49;3.65;;;1.70;;
55915;SDS011;41826;53.246;-6.670;2023-04-06T07:57:15;2.00;;;1.50;;
55915;SDS011;41826;53.246;-6.670;2023-04-06T07:59:40;3.70;;;1.40;;
55915;SDS011;41826;53.246;-6.670;2023-04-06T08:02:06;1.92;;;1.00;;
55915;SDS011;41826;53.246;-6.670;2023-04-06T08:04:31;4.68;;;1.13;;
55915;SDS011;41826;53.246;-6.670;2023-04-06T08:06:56;1.85;;;1.13;;
55915;SDS011;41826;53.246;-6.670;2023-04-06T08:09:22;1.92;;;1.13;;
55915;SDS011;41826;53.246;-6.670;2023-04-06T08:11:47;3.03;;;1.33;;
55915;SDS011;41826;53.246;-6.670;2023-04-06T08:14:13;2.00;;;0.95;;
55915;SDS011;41826;53.246;-6.670;2023-04-06T08:16:40;5.70;;;1.58;;
55915;SDS011;41826;53.246;-6.670;2023-04-06T08:19:05;1.65;;;1.15;;
55915;SDS011;41826;53.246;-6.670;2023-04-06T08:21:34;3.00;;;1.10;;
55915;SDS011;41826;53.246;-6.670;2023-04-06T08:24:02;2.20;;;1.35;;
55915;SDS011;41826;53.246;-6.670;2023-04-06T08:26:28;4.38;;;1.45;;
55915;SDS011;41826;53.246;-6.670;2023-04-06T08:28:54;3.10;;;1.30;;
55915;SDS011;41826;53.246;-6.670;2023-04-06T08:31:19;5.28;;;1.52;;
55915;SDS011;41826;53.246;-6.670;2023-04-06T08:33:45;2.72;;;1.08;;
55915;SDS011;41826;53.246;-6.670;2023-04-06T08:36:11;2.30;;;1.33;;
55915;SDS011;41826;53.246;-6.670;2023-04-06T08:38:38;2.33;;;0.98;;
55915;SDS011;41826;53.246;-6.670;2023-04-06T08:41:12;4.30;;;1.27;;
55915;SDS011;41826;53.246;-6.670;2023-04-06T08:43:42;3.75;;;1.02;;
55915;SDS011;41826;53.246;-6.670;2023-04-06T08:46:09;4.88;;;0.95;;
55915;SDS011;41826;53.246;-6.670;2023-04-06T08:48:36;3.40;;;0.90;;
55915;SDS011;41826;53.246;-6.670;2023-04-06T08:51:03;6.05;;;1.25;;
55915;SDS011;41826;53.246;-6.670;2023-04-06T08:53:29;2.80;;;1.10;;
55915;SDS011;41826;53.246;-6.670;2023-04-06T08:55:55;5.10;;;1.02;;
55915;SDS011;41826;53.246;-6.670;2023-04-06T08:58:23;2.72;;;0.70;;
55915;SDS011;41826;53.246;-6.670;2023-04-06T09:00:50;3.20;;;0.95;;
55915;SDS011;41826;53.246;-6.670;2023-04-06T09:03:17;5.20;;;1.10;;
55915;SDS011;41826;53.246;-6.670;2023-04-06T09:05:43;3.45;;;1.20;;
55915;SDS011;41826;53.246;-6.670;2023-04-06T09:08:10;6.25;;;1.63;;
55915;SDS011;41826;53.246;-6.670;2023-04-06T09:10:35;7.32;;;1.15;;
55915;SDS011;41826;53.246;-6.670;2023-04-06T09:13:06;2.83;;;0.70;;
55915;SDS011;41826;53.246;-6.670;2023-04-06T09:15:32;5.22;;;0.90;;
55915;SDS011;41826;53.246;-6.670;2023-04-06T09:17:58;4.45;;;1.00;;
55915;SDS011;41826;53.246;-6.670;2023-04-06T09:20:24;4.45;;;0.85;;
55915;SDS011;41826;53.246;-6.670;2023-04-06T09:22:56;4.95;;;0.98;;
55915;SDS011;41826;53.246;-6.670;2023-04-06T09:25:22;4.63;;;1.00;;
55915;SDS011;41826;53.246;-6.670;2023-04-06T09:27:48;4.60;;;1.35;;
55915;SDS011;41826;53.246;-6.670;2023-04-06T09:30:24;5.80;;;0.88;;
55915;SDS011;41826;53.246;-6.670;2023-04-06T09:32:50;3.22;;;0.90;;
55915;SDS011;41826;53.246;-6.670;2023-04-06T09:35:18;3.33;;;0.90;;
55915;SDS011;41826;53.246;-6.670;2023-04-06T09:37:45;2.55;;;0.77;;
55915;SDS011;41826;53.246;-6.670;2023-04-06T09:40:12;2.45;;;0.90;;
55915;SDS011;41826;53.246;-6.670;2023-04-06T09:42:39;2.92;;;0.70;;
55915;SDS011;41826;53.246;-6.670;2023-04-06T09:45:06;3.38;;;1.00;;
55915;SDS011;41826;53.246;-6.670;2023-04-06T09:47:32;1.58;;;0.50;;
55915;SDS011;41826;53.246;-6.670;2023-04-06T09:50:00;3.03;;;0.70;;
55915;SDS011;41826;53.246;-6.670;2023-04-06T09:52:29;2.35;;;1.00;;
55915;SDS011;41826;53.246;-6.670;2023-04-06T09:55:01;2.88;;;0.60;;
55915;SDS011;41826;53.246;-6.670;2023-04-06T09:57:30;4.40;;;1.05;;
55915;SDS011;41826;53.246;-6.670;2023-04-06T10:00:02;3.60;;;0.93;;
55915;SDS011;41826;53.246;-6.670;2023-04-06T10:05:02;2.97;;;0.60;;
55915;SDS011;41826;53.246;-6.670;2023-04-06T10:07:34;5.55;;;0.73;;
55915;SDS011;41826;53.246;-6.670;2023-04-06T10:10:01;3.58;;;0.80;;
55915;SDS011;41826;53.246;-6.670;2023-04-06T10:12:28;9.63;;;0.80;;
55915;SDS011;41826;53.246;-6.670;2023-04-06T10:14:53;3.35;;;0.65;;
55915;SDS011;41826;53.246;-6.670;2023-04-06T10:17:20;6.70;;;1.40;;
55915;SDS011;41826;53.246;-6.670;2023-04-06T10:19:53;4.90;;;1.83;;
55915;SDS011;41826;53.246;-6.670;2023-04-06T10:22:26;1.85;;;0.60;;
55915;SDS011;41826;53.246;-6.670;2023-04-06T10:24:59;5.00;;;1.10;;
55915;SDS011;41826;53.246;-6.670;2023-04-06T10:27:28;3.25;;;0.77;;
55915;SDS011;41826;53.246;-6.670;2023-04-06T10:30:03;2.83;;;0.52;;
55915;SDS011;41826;53.246;-6.670;2023-04-06T10:32:37;4.90;;;0.52;;
55915;SDS011;41826;53.246;-6.670;2023-04-06T10:37:45;2.15;;;0.47;;
55915;SDS011;41826;53.246;-6.670;2023-04-06T10:40:24;2.03;;;0.50;;
55915;SDS011;41826;53.246;-6.670;2023-04-06T10:42:51;2.80;;;0.50;;
55915;SDS011;41826;53.246;-6.670;2023-04-06T10:45:19;4.13;;;0.75;;
55915;SDS011;41826;53.246;-6.670;2023-04-06T10:47:48;4.32;;;0.60;;
55915;SDS011;41826;53.246;-6.670;2023-04-06T10:50:14;3.13;;;1.05;;
55915;SDS011;41826;53.246;-6.670;2023-04-06T10:52:44;1.50;;;0.90;;
55915;SDS011;41826;53.246;-6.670;2023-04-06T10:55:11;0.77;;;0.50;;
55915;SDS011;41826;53.246;-6.670;2023-04-06T10:57:39;3.75;;;0.60;;
55915;SDS011;41826;53.246;-6.670;2023-04-06T11:00:05;3.17;;;0.63;;
55915;SDS011;41826;53.246;-6.670;2023-04-06T11:02:33;1.75;;;0.45;;
55915;SDS011;41826;53.246;-6.670;2023-04-06T11:05:00;1.95;;;0.70;;
55915;SDS011;41826;53.246;-6.670;2023-04-06T11:07:25;3.35;;;1.00;;
55915;SDS011;41826;53.246;-6.670;2023-04-06T11:09:52;4.82;;;0.77;;
55915;SDS011;41826;53.246;-6.670;2023-04-06T11:12:24;5.63;;;0.65;;
55915;SDS011;41826;53.246;-6.670;2023-04-06T11:14:53;1.92;;;0.70;;
55915;SDS011;41826;53.246;-6.670;2023-04-06T11:17:25;1.50;;;0.40;;
55915;SDS011;41826;53.246;-6.670;2023-04-06T11:19:51;4.73;;;0.80;;
55915;SDS011;41826;53.246;-6.670;2023-04-06T11:22:16;1.73;;;0.65;;
55915;SDS011;41826;53.246;-6.670;2023-04-06T11:24:41;1.85;;;0.60;;
55915;SDS011;41826;53.246;-6.670;2023-04-06T11:27:07;4.57;;;0.65;;
55915;SDS011;41826;53.246;-6.670;2023-04-06T11:29:32;2.60;;;0.80;;
55915;SDS011;41826;53.246;-6.670;2023-04-06T11:32:02;1.63;;;0.75;;
55915;SDS011;41826;53.246;-6.670;2023-04-06T11:34:29;4.50;;;1.02;;
55915;SDS011;41826;53.246;-6.670;2023-04-06T11:36:57;3.30;;;1.23;;
55915;SDS011;41826;53.246;-6.670;2023-04-06T11:39:23;3.83;;;0.85;;
55915;SDS011;41826;53.246;-6.670;2023-04-06T11:41:51;1.40;;;0.70;;
55915;SDS011;41826;53.246;-6.670;2023-04-06T11:44:33;3.33;;;1.25;;
55915;SDS011;41826;53.246;-6.670;2023-04-06T11:47:07;2.88;;;0.80;;
55915;SDS011;41826;53.246;-6.670;2023-04-06T11:49:41;2.85;;;0.93;;
55915;SDS011;41826;53.246;-6.670;2023-04-06T11:52:17;2.70;;;0.75;;
55915;SDS011;41826;53.246;-6.670;2023-04-06T11:54:44;4.63;;;0.52;;
55915;SDS011;41826;53.246;-6.670;2023-04-06T11:57:10;2.65;;;0.70;;
55915;SDS011;41826;53.246;-6.670;2023-04-06T11:59:35;2.40;;;0.85;;
55915;SDS011;41826;53.246;-6.670;2023-04-06T12:02:01;1.15;;;0.70;;
55915;SDS011;41826;53.246;-6.670;2023-04-06T12:04:27;3.03;;;0.40;;
55915;SDS011;41826;53.246;-6.670;2023-04-06T12:06:54;3.88;;;0.90;;
55915;SDS011;41826;53.246;-6.670;2023-04-06T12:09:19;3.00;;;0.90;;
55915;SDS011;41826;53.246;-6.670;2023-04-06T12:11:45;2.10;;;0.80;;
55915;SDS011;41826;53.246;-6.670;2023-04-06T12:14:11;2.67;;;0.50;;
55915;SDS011;41826;53.246;-6.670;2023-04-06T12:16:37;3.13;;;0.60;;
55915;SDS011;41826;53.246;-6.670;2023-04-06T12:19:02;4.40;;;0.75;;
55915;SDS011;41826;53.246;-6.670;2023-04-06T12:21:28;2.92;;;0.95;;
55915;SDS011;41826;53.246;-6.670;2023-04-06T12:23:54;3.78;;;0.80;;
55915;SDS011;41826;53.246;-6.670;2023-04-06T12:26:20;6.57;;;0.85;;
55915;SDS011;41826;53.246;-6.670;2023-04-06T12:28:46;1.38;;;0.60;;
55915;SDS011;41826;53.246;-6.670;2023-04-06T12:31:15;1.73;;;0.60;;
55915;SDS011;41826;53.246;-6.670;2023-04-06T12:33:41;2.35;;;0.52;;
55915;SDS011;41826;53.246;-6.670;2023-04-06T12:36:13;2.88;;;0.82;;
55915;SDS011;41826;53.246;-6.670;2023-04-06T12:38:40;0.57;;;0.50;;
55915;SDS011;41826;53.246;-6.670;2023-04-06T12:41:06;1.95;;;0.60;;
55915;SDS011;41826;53.246;-6.670;2023-04-06T12:43:32;5.00;;;0.70;;
55915;SDS011;41826;53.246;-6.670;2023-04-06T12:45:58;2.67;;;0.43;;
55915;SDS011;41826;53.246;-6.670;2023-04-06T12:48:24;4.10;;;0.50;;
55915;SDS011;41826;53.246;-6.670;2023-04-06T12:51:00;2.85;;;0.80;;
55915;SDS011;41826;53.246;-6.670;2023-04-06T12:53:26;0.50;;;0.40;;
55915;SDS011;41826;53.246;-6.670;2023-04-06T12:55:53;2.83;;;0.60;;
55915;SDS011;41826;53.246;-6.670;2023-04-06T12:58:19;1.95;;;0.50;;
55915;SDS011;41826;53.246;-6.670;2023-04-06T13:00:47;3.03;;;0.40;;
55915;SDS011;41826;53.246;-6.670;2023-04-06T13:03:15;0.95;;;0.45;;
55915;SDS011;41826;53.246;-6.670;2023-04-06T13:05:44;2.33;;;0.30;;
55915;SDS011;41826;53.246;-6.670;2023-04-06T13:08:10;0.82;;;0.35;;
55915;SDS011;41826;53.246;-6.670;2023-04-06T13:10:35;2.35;;;1.40;;
55915;SDS011;41826;53.246;-6.670;2023-04-06T13:13:01;1.75;;;0.50;;
55915;SDS011;41826;53.246;-6.670;2023-04-06T13:15:27;2.78;;;0.40;;
55915;SDS011;41826;53.246;-6.670;2023-04-06T13:17:52;2.25;;;0.75;;
55915;SDS011;41826;53.246;-6.670;2023-04-06T13:20:18;1.70;;;0.60;;
55915;SDS011;41826;53.246;-6.670;2023-04-06T13:22:43;4.50;;;0.60;;
55915;SDS011;41826;53.246;-6.670;2023-04-06T13:25:09;0.52;;;0.30;;
55915;SDS011;41826;53.246;-6.670;2023-04-06T13:27:34;0.35;;;0.35;;
55915;SDS011;41826;53.246;-6.670;2023-04-06T13:30:00;1.75;;;0.38;;
55915;SDS011;41826;53.246;-6.670;2023-04-06T13:32:27;0.98;;;0.35;;
55915;SDS011;41826;53.246;-6.670;2023-04-06T13:34:56;1.58;;;0.50;;
55915;SDS011;41826;53.246;-6.670;2023-04-06T13:37:22;0.75;;;0.30;;
55915;SDS011;41826;53.246;-6.670;2023-04-06T15:05:56;3.30;;;0.60;;
55915;SDS011;41826;53.246;-6.670;2023-04-06T15:08:22;2.72;;;0.75;;
55915;SDS011;41826;53.246;-6.670;2023-04-06T15:10:48;3.65;;;0.82;;
55915;SDS011;41826;53.246;-6.670;2023-04-06T15:13:15;2.22;;;0.55;;
55915;SDS011;41826;53.246;-6.670;2023-04-06T15:15:40;3.83;;;0.80;;
55915;SDS011;41826;53.246;-6.670;2023-04-06T15:18:06;2.70;;;0.50;;
55915;SDS011;41826;53.246;-6.670;2023-04-06T15:20:32;0.82;;;0.50;;
55915;SDS011;41826;53.246;-6.670;2023-04-06T15:22:58;2.33;;;0.65;;
55915;SDS011;41826;53.246;-6.670;2023-04-06T15:25:23;1.05;;;0.60;;
55915;SDS011;41826;53.246;-6.670;2023-04-06T15:27:49;2.08;;;0.57;;
55915;SDS011;41826;53.246;-6.670;2023-04-06T15:30:15;2.45;;;0.50;;
55915;SDS011;41826;53.246;-6.670;2023-04-06T15:32:42;1.83;;;0.50;;
55915;SDS011;41826;53.246;-6.670;2023-04-06T15:35:20;1.95;;;0.90;;
55915;SDS011;41826;53.246;-6.670;2023-04-06T15:37:46;2.90;;;0.73;;
55915;SDS011;41826;53.246;-6.670;2023-04-06T15:40:11;1.05;;;0.52;;
55915;SDS011;41826;53.246;-6.670;2023-04-06T15:42:38;0.88;;;0.50;;
55915;SDS011;41826;53.246;-6.670;2023-04-06T15:45:04;2.45;;;0.63;;
55915;SDS011;41826;53.246;-6.670;2023-04-06T15:47:31;1.35;;;0.45;;
55915;SDS011;41826;53.246;-6.670;2023-04-06T15:49:57;1.70;;;0.50;;
55915;SDS011;41826;53.246;-6.670;2023-04-06T15:52:22;1.95;;;0.50;;
55915;SDS011;41826;53.246;-6.670;2023-04-06T15:54:48;0.65;;;0.50;;
55915;SDS011;41826;53.246;-6.670;2023-04-06T15:57:13;2.22;;;0.57;;
55915;SDS011;41826;53.246;-6.670;2023-04-06T15:59:39;1.23;;;0.52;;